sensor_id;sensor_type;location;lat;lon;timestamp;pressure;altitude;pressure_sealevel;temperature;humidity
51123;BME280;37162;41.724;13.346;2023-11-19T00:01:06;97368.22;;;19.21;76.05
51123;BME280;37162;41.724;13.346;2023-11-19T00:03:31;97367.41;;;19.21;76.05
51123;BME280;37162;41.724;13.346;2023-11-19T00:05:58;97363.88;;;19.20;76.05
51123;BME280;37162;41.724;13.346;2023-11-19T00:08:24;97361.19;;;19.20;76.01
51123;BME280;37162;41.724;13.346;2023-11-19T00:10:50;97362.00;;;19.21;76.00
51123;BME280;37162;41.724;13.346;2023-11-19T00:13:16;97369.28;;;19.20;75.94
51123;BME280;37162;41.724;13.346;2023-11-19T00:15:41;97361.19;;;19.20;75.96
51123;BME280;37162;41.724;13.346;2023-11-19T00:18:07;97363.88;;;19.20;75.99
51123;BME280;37162;41.724;13.346;2023-11-19T00:20:33;97366.59;;;19.20;76.11
51123;BME280;37162;41.724;13.346;2023-11-19T00:22:58;97360.38;;;19.20;76.13
51123;BME280;37162;41.724;13.346;2023-11-19T00:25:24;97362.00;;;19.21;76.21
51123;BME280;37162;41.724;13.346;2023-11-19T00:27:50;97364.47;;;19.22;76.37
51123;BME280;37162;41.724;13.346;2023-11-19T00:30:16;97358.13;;;19.17;76.46
51123;BME280;37162;41.724;13.346;2023-11-19T00:32:42;97367.97;;;19.23;76.36
51123;BME280;37162;41.724;13.346;2023-11-19T00:35:08;97373.34;;;19.23;76.05
51123;BME280;37162;41.724;13.346;2023-11-19T00:37:39;97370.31;;;19.19;75.88
51123;BME280;37162;41.724;13.346;2023-11-19T00:40:05;97369.59;;;19.24;75.73
51123;BME280;37162;41.724;13.346;2023-11-19T00:42:31;97365.28;;;19.23;75.76
51123;BME280;37162;41.724;13.346;2023-11-19T00:44:56;97361.78;;;19.22;75.95
51123;BME280;37162;41.724;13.346;2023-11-19T00:47:23;97352.88;;;19.22;75.85
51123;BME280;37162;41.724;13.346;2023-11-19T00:49:48;97336.84;;;19.15;75.78
51123;BME280;37162;41.724;13.346;2023-11-19T00:52:14;97349.34;;;19.21;75.85
51123;BME280;37162;41.724;13.346;2023-11-19T00:54:40;97338.81;;;19.20;75.77
51123;BME280;37162;41.724;13.346;2023-11-19T00:57:06;97342.34;;;19.20;75.79
51123;BME280;37162;41.724;13.346;2023-11-19T00:59:31;97339.28;;;19.17;75.76
51123;BME280;37162;41.724;13.346;2023-11-19T01:01:58;97347.13;;;19.18;75.78
51123;BME280;37162;41.724;13.346;2023-11-19T01:04:24;97349.59;;;19.20;75.82
51123;BME280;37162;41.724;13.346;2023-11-19T01:06:49;97344.44;;;19.18;75.93
51123;BME280;37162;41.724;13.346;2023-11-19T01:09:15;97348.75;;;19.19;75.70
51123;BME280;37162;41.724;13.346;2023-11-19T01:11:40;97351.44;;;19.19;75.86
51123;BME280;37162;41.724;13.346;2023-11-19T01:14:06;97349.59;;;19.20;75.95
51123;BME280;37162;41.724;13.346;2023-11-19T01:16:31;97352.28;;;19.20;76.01
51123;BME280;37162;41.724;13.346;2023-11-19T01:18:57;97363.66;;;19.22;76.19
51123;BME280;37162;41.724;13.346;2023-11-19T01:21:22;97362.00;;;19.21;76.29
51123;BME280;37162;41.724;13.346;2023-11-19T01:23:48;97356.38;;;19.22;76.25
51123;BME280;37162;41.724;13.346;2023-11-19T01:26:13;97344.78;;;19.22;76.01
51123;BME280;37162;41.724;13.346;2023-11-19T01:28:39;97339.41;;;19.22;75.66
51123;BME280;37162;41.724;13.346;2023-11-19T01:31:08;97327.69;;;19.16;75.79
51123;BME280;37162;41.724;13.346;2023-11-19T01:33:35;97342.34;;;19.20;75.71
51123;BME280;37162;41.724;13.346;2023-11-19T01:36:01;97340.47;;;19.21;75.71
51123;BME280;37162;41.724;13.346;2023-11-19T01:38:26;97338.81;;;19.20;75.68
51123;BME280;37162;41.724;13.346;2023-11-19T01:40:56;97333.44;;;19.20;75.66
51123;BME280;37162;41.724;13.346;2023-11-19T01:43:38;97320.06;;;19.13;75.58
51123;BME280;37162;41.724;13.346;2023-11-19T01:46:06;97322.88;;;19.18;75.62
51123;BME280;37162;41.724;13.346;2023-11-19T01:48:37;97323.69;;;19.19;75.63
51123;BME280;37162;41.724;13.346;2023-11-19T01:51:06;97329.31;;;19.17;75.67
51123;BME280;37162;41.724;13.346;2023-11-19T01:53:34;97312.22;;;19.11;75.58
51123;BME280;37162;41.724;13.346;2023-11-19T01:56:00;97310.47;;;19.17;75.60
51123;BME280;37162;41.724;13.346;2023-11-19T01:58:26;97305.09;;;19.17;75.64
51123;BME280;37162;41.724;13.346;2023-11-19T02:00:52;97300.50;;;19.18;75.67
51123;BME280;37162;41.724;13.346;2023-11-19T02:03:19;97289.38;;;19.14;75.87
51123;BME280;37162;41.724;13.346;2023-11-19T02:05:48;97286.09;;;19.12;75.98
51123;BME280;37162;41.724;13.346;2023-11-19T02:08:14;97285.97;;;19.19;76.00
51123;BME280;37162;41.724;13.346;2023-11-19T02:10:39;97295.94;;;19.18;76.07
51123;BME280;37162;41.724;13.346;2023-11-19T02:13:05;97291.38;;;19.19;76.11
51123;BME280;37162;41.724;13.346;2023-11-19T02:15:32;97292.19;;;19.19;75.98
51123;BME280;37162;41.724;13.346;2023-11-19T02:18:17;97276.50;;;19.16;75.56
51123;BME280;37162;41.724;13.346;2023-11-19T02:20:43;97277.91;;;19.19;75.67
51123;BME280;37162;41.724;13.346;2023-11-19T02:23:08;97278.72;;;19.19;75.65
51123;BME280;37162;41.724;13.346;2023-11-19T02:25:34;97260.00;;;19.12;75.67
51123;BME280;37162;41.724;13.346;2023-11-19T02:28:01;97277.09;;;19.18;75.73
51123;BME280;37162;41.724;13.346;2023-11-19T02:30:27;97274.38;;;19.18;75.74
51123;BME280;37162;41.724;13.346;2023-11-19T02:32:56;97276.28;;;19.18;75.67
51123;BME280;37162;41.724;13.346;2023-11-19T02:35:28;97271.94;;;19.17;75.62
51123;BME280;37162;41.724;13.346;2023-11-19T02:37:57;97267.50;;;19.10;75.68
51123;BME280;37162;41.724;13.346;2023-11-19T02:40:24;97270.31;;;19.15;75.68
51123;BME280;37162;41.724;13.346;2023-11-19T02:42:50;97266.78;;;19.15;75.61
51123;BME280;37162;41.724;13.346;2023-11-19T02:45:16;97269.50;;;19.15;75.65
51123;BME280;37162;41.724;13.346;2023-11-19T02:47:43;97270.53;;;19.14;75.60
51123;BME280;37162;41.724;13.346;2023-11-19T02:50:12;97265.84;;;19.09;75.68
51123;BME280;37162;41.724;13.346;2023-11-19T02:52:44;97265.63;;;19.11;75.87
51123;BME280;37162;41.724;13.346;2023-11-19T02:55:11;97278.38;;;19.15;75.98
51123;BME280;37162;41.724;13.346;2023-11-19T02:57:40;97258.56;;;19.10;75.96
51123;BME280;37162;41.724;13.346;2023-11-19T03:00:16;97260.34;;;19.16;76.01
51123;BME280;37162;41.724;13.346;2023-11-19T03:02:43;97254.16;;;19.15;75.76
51123;BME280;37162;41.724;13.346;2023-11-19T03:05:13;97250.63;;;19.15;75.52
51123;BME280;37162;41.724;13.346;2023-11-19T03:07:43;97259.53;;;19.15;75.55
51123;BME280;37162;41.724;13.346;2023-11-19T03:10:12;97264.09;;;19.15;75.52
51123;BME280;37162;41.724;13.346;2023-11-19T03:12:42;97257.53;;;19.11;75.69
51123;BME280;37162;41.724;13.346;2023-11-19T03:15:08;97264.09;;;19.15;75.78
51123;BME280;37162;41.724;13.346;2023-11-19T03:17:40;97265.13;;;19.14;75.78
51123;BME280;37162;41.724;13.346;2023-11-19T03:20:07;97261.63;;;19.13;75.74
51123;BME280;37162;41.724;13.346;2023-11-19T03:22:40;97255.66;;;19.11;75.73
51123;BME280;37162;41.724;13.346;2023-11-19T03:25:07;97255.31;;;19.08;75.78
51123;BME280;37162;41.724;13.346;2023-11-19T03:27:35;97255.06;;;19.09;75.58
51123;BME280;37162;41.724;13.346;2023-11-19T03:30:02;97258.56;;;19.10;75.74
51123;BME280;37162;41.724;13.346;2023-11-19T03:32:30;97251.56;;;19.09;75.64
51123;BME280;37162;41.724;13.346;2023-11-19T03:40:11;97237.97;;;19.04;75.62
51123;BME280;37162;41.724;13.346;2023-11-19T03:42:37;97241.84;;;19.08;75.61
51123;BME280;37162;41.724;13.346;2023-11-19T03:45:02;97243.47;;;19.09;75.68
51123;BME280;37162;41.724;13.346;2023-11-19T03:47:30;97244.28;;;19.09;75.80
51123;BME280;37162;41.724;13.346;2023-11-19T03:49:56;97248.88;;;19.09;75.64
51123;BME280;37162;41.724;13.346;2023-11-19T03:52:21;97249.69;;;19.09;75.57
51123;BME280;37162;41.724;13.346;2023-11-19T03:54:47;97248.03;;;19.08;75.45
51123;BME280;37162;41.724;13.346;2023-11-19T03:57:12;97242.53;;;19.03;75.77
51123;BME280;37162;41.724;13.346;2023-11-19T03:59:39;97251.19;;;19.05;76.04
51123;BME280;37162;41.724;13.346;2023-11-19T04:02:04;97250.97;;;19.07;75.85
51123;BME280;37162;41.724;13.346;2023-11-19T04:04:30;97246.66;;;19.06;75.72
51123;BME280;37162;41.724;13.346;2023-11-19T04:06:56;97243.13;;;19.05;75.80
51123;BME280;37162;41.724;13.346;2023-11-19T04:09:22;97256.59;;;19.05;75.59
51123;BME280;37162;41.724;13.346;2023-11-19T04:11:47;97245.81;;;19.05;75.80
51123;BME280;37162;41.724;13.346;2023-11-19T04:14:13;97244.19;;;19.04;75.63
51123;BME280;37162;41.724;13.346;2023-11-19T04:16:40;97243.38;;;19.04;75.62
51123;BME280;37162;41.724;13.346;2023-11-19T04:19:05;97247.94;;;19.03;75.47
51123;BME280;37162;41.724;13.346;2023-11-19T04:21:32;97240.91;;;19.02;75.41
51123;BME280;37162;41.724;13.346;2023-11-19T04:23:57;97235.28;;;19.04;75.40
51123;BME280;37162;41.724;13.346;2023-11-19T04:26:22;97242.53;;;19.03;75.13
51123;BME280;37162;41.724;13.346;2023-11-19T04:28:48;97234.47;;;19.03;75.20
51123;BME280;37162;41.724;13.346;2023-11-19T04:31:15;97236.91;;;19.05;75.32
51123;BME280;37162;41.724;13.346;2023-11-19T04:33:41;97232.84;;;19.02;75.16
51123;BME280;37162;41.724;13.346;2023-11-19T04:36:08;97235.28;;;19.04;75.14
51123;BME280;37162;41.724;13.346;2023-11-19T04:38:33;97236.09;;;19.04;75.00
51123;BME280;37162;41.724;13.346;2023-11-19T04:40:59;97232.59;;;19.04;74.88
51123;BME280;37162;41.724;13.346;2023-11-19T04:43:25;97232.03;;;19.02;74.69
51123;BME280;37162;41.724;13.346;2023-11-19T04:45:50;97236.09;;;19.04;74.88
51123;BME280;37162;41.724;13.346;2023-11-19T04:48:16;97223.44;;;19.05;74.95
51123;BME280;37162;41.724;13.346;2023-11-19T04:50:41;97222.88;;;19.03;74.89
51123;BME280;37162;41.724;13.346;2023-11-19T04:53:07;97220.75;;;19.05;74.87
51123;BME280;37162;41.724;13.346;2023-11-19T04:55:32;97208.00;;;19.00;74.86
51123;BME280;37162;41.724;13.346;2023-11-19T04:57:58;97201.78;;;19.00;75.04
51123;BME280;37162;41.724;13.346;2023-11-19T05:00:23;97209.41;;;19.03;74.89
51123;BME280;37162;41.724;13.346;2023-11-19T05:02:48;97209.41;;;19.03;74.88
51123;BME280;37162;41.724;13.346;2023-11-19T05:05:15;97231.78;;;19.03;74.91
51123;BME280;37162;41.724;13.346;2023-11-19T05:07:41;97234.47;;;19.03;74.84
51123;BME280;37162;41.724;13.346;2023-11-19T05:10:07;97234.47;;;19.03;74.76
51123;BME280;37162;41.724;13.346;2023-11-19T05:12:32;97213.75;;;19.04;74.95
51123;BME280;37162;41.724;13.346;2023-11-19T05:14:58;97217.25;;;19.04;75.12
51123;BME280;37162;41.724;13.346;2023-11-19T05:17:23;97220.06;;;18.98;75.26
51123;BME280;37162;41.724;13.346;2023-11-19T05:19:49;97224.25;;;19.05;75.27
51123;BME280;37162;41.724;13.346;2023-11-19T05:22:14;97225.31;;;19.04;75.34
51123;BME280;37162;41.724;13.346;2023-11-19T05:24:40;97223.44;;;19.05;75.20
51123;BME280;37162;41.724;13.346;2023-11-19T05:27:06;97222.63;;;19.04;74.87
51123;BME280;37162;41.724;13.346;2023-11-19T05:29:33;97221.00;;;19.03;74.72
51123;BME280;37162;41.724;13.346;2023-11-19T05:31:58;97232.59;;;19.04;74.77
51123;BME280;37162;41.724;13.346;2023-11-19T05:34:24;97233.41;;;19.04;75.06
51123;BME280;37162;41.724;13.346;2023-11-19T05:36:50;97219.63;;;19.01;74.79
51123;BME280;37162;41.724;13.346;2023-11-19T05:39:16;97222.06;;;19.02;75.15
51123;BME280;37162;41.724;13.346;2023-11-19T05:41:43;97213.16;;;19.02;75.06
51123;BME280;37162;41.724;13.346;2023-11-19T05:44:09;97206.59;;;18.98;75.21
51123;BME280;37162;41.724;13.346;2023-11-19T05:46:34;97219.13;;;19.04;75.14
51123;BME280;37162;41.724;13.346;2023-11-19T05:49:05;97229.09;;;19.03;75.05
51123;BME280;37162;41.724;13.346;2023-11-19T05:51:30;97227.44;;;19.02;75.03
51123;BME280;37162;41.724;13.346;2023-11-19T05:53:56;97231.19;;;19.01;74.96
51123;BME280;37162;41.724;13.346;2023-11-19T05:56:22;97227.09;;;18.99;74.78
51123;BME280;37162;41.724;13.346;2023-11-19T05:58:48;97233.06;;;19.01;74.56
51123;BME280;37162;41.724;13.346;2023-11-19T06:01:14;97214.69;;;18.98;74.56
51123;BME280;37162;41.724;13.346;2023-11-19T06:03:40;97223.34;;;19.00;74.88
51123;BME280;37162;41.724;13.346;2023-11-19T06:06:06;97214.69;;;18.98;74.97
51123;BME280;37162;41.724;13.346;2023-11-19T06:08:31;97211.53;;;19.01;75.06
51123;BME280;37162;41.724;13.346;2023-11-19T06:10:57;97222.31;;;19.01;75.12
51123;BME280;37162;41.724;13.346;2023-11-19T06:13:23;97227.09;;;18.99;74.83
51123;BME280;37162;41.724;13.346;2023-11-19T06:15:49;97234.94;;;19.00;74.48
51123;BME280;37162;41.724;13.346;2023-11-19T06:18:16;97250.06;;;19.01;74.53
51123;BME280;37162;41.724;13.346;2023-11-19T06:20:41;97244.88;;;19.00;74.52
51123;BME280;37162;41.724;13.346;2023-11-19T06:23:07;97247.00;;;18.98;74.44
51123;BME280;37162;41.724;13.346;2023-11-19T06:25:32;97252.97;;;19.00;74.53
51123;BME280;37162;41.724;13.346;2023-11-19T06:28:00;97255.66;;;19.00;74.66
51123;BME280;37162;41.724;13.346;2023-11-19T06:30:25;97256.47;;;19.00;74.85
51123;BME280;37162;41.724;13.346;2023-11-19T06:32:53;97253.78;;;19.00;74.65
51123;BME280;37162;41.724;13.346;2023-11-19T06:35:18;97242.06;;;18.95;74.78
51123;BME280;37162;41.724;13.346;2023-11-19T06:37:44;97246.53;;;19.01;74.79
51123;BME280;37162;41.724;13.346;2023-11-19T06:40:10;97255.44;;;19.01;74.72
51123;BME280;37162;41.724;13.346;2023-11-19T06:42:37;97256.47;;;19.00;74.60
51123;BME280;37162;41.724;13.346;2023-11-19T06:45:03;97264.91;;;19.04;74.69
51123;BME280;37162;41.724;13.346;2023-11-19T06:47:29;97260.59;;;19.03;74.52
51123;BME280;37162;41.724;13.346;2023-11-19T06:49:55;97268.91;;;19.01;74.52
51123;BME280;37162;41.724;13.346;2023-11-19T06:52:21;97265.41;;;19.01;74.63
51123;BME280;37162;41.724;13.346;2023-11-19T06:54:47;97264.66;;;19.05;74.88
51123;BME280;37162;41.724;13.346;2023-11-19T06:57:13;97265.72;;;19.04;74.99
51123;BME280;37162;41.724;13.346;2023-11-19T06:59:38;97283.19;;;19.13;75.03
51123;BME280;37162;41.724;13.346;2023-11-19T07:02:05;97280.47;;;19.13;74.80
51123;BME280;37162;41.724;13.346;2023-11-19T07:04:31;97275.91;;;19.14;74.37
51123;BME280;37162;41.724;13.346;2023-11-19T07:06:58;97283.19;;;19.13;74.33
51123;BME280;37162;41.724;13.346;2023-11-19T07:09:25;97274.03;;;19.14;74.34
51123;BME280;37162;41.724;13.346;2023-11-19T07:11:50;97281.91;;;19.16;74.26
51123;BME280;37162;41.724;13.346;2023-11-19T07:14:18;97289.97;;;19.16;74.24
51123;BME280;37162;41.724;13.346;2023-11-19T07:16:44;97278.16;;;19.17;74.23
51123;BME280;37162;41.724;13.346;2023-11-19T07:19:09;97277.31;;;19.17;74.16
51123;BME280;37162;41.724;13.346;2023-11-19T07:21:35;97276.72;;;19.14;74.13
51123;BME280;37162;41.724;13.346;2023-11-19T07:24:05;97284.09;;;19.19;74.06
51123;BME280;37162;41.724;13.346;2023-11-19T07:26:30;97290.34;;;19.20;73.99
51123;BME280;37162;41.724;13.346;2023-11-19T07:28:56;97290.09;;;19.21;73.86
51123;BME280;37162;41.724;13.346;2023-11-19T07:31:22;97287.16;;;19.23;73.86
51123;BME280;37162;41.724;13.346;2023-11-19T07:33:49;97280.84;;;19.17;73.85
51123;BME280;37162;41.724;13.346;2023-11-19T07:36:14;97286.91;;;19.24;73.74
51123;BME280;37162;41.724;13.346;2023-11-19T07:38:40;97287.75;;;19.25;73.61
51123;BME280;37162;41.724;13.346;2023-11-19T07:41:05;97284.81;;;19.26;73.57
51123;BME280;37162;41.724;13.346;2023-11-19T07:43:32;97278.63;;;19.26;73.68
51123;BME280;37162;41.724;13.346;2023-11-19T07:45:57;97288.69;;;19.30;73.79
51123;BME280;37162;41.724;13.346;2023-11-19T07:48:25;97292.78;;;19.33;73.74
51123;BME280;37162;41.724;13.346;2023-11-19T07:50:52;97292.56;;;19.34;73.65
51123;BME280;37162;41.724;13.346;2023-11-19T07:53:18;97295.00;;;19.36;73.12
51123;BME280;37162;41.724;13.346;2023-11-19T07:55:44;97300.16;;;19.37;73.04
51123;BME280;37162;41.724;13.346;2023-11-19T07:58:10;97304.50;;;19.38;73.13
51123;BME280;37162;41.724;13.346;2023-11-19T08:00:36;97306.97;;;19.40;73.04
51123;BME280;37162;41.724;13.346;2023-11-19T08:03:02;97300.50;;;19.41;72.74
51123;BME280;37162;41.724;13.346;2023-11-19T08:05:28;97305.06;;;19.40;71.93
51123;BME280;37162;41.724;13.346;2023-11-19T08:07:53;97305.06;;;19.40;70.37
51123;BME280;37162;41.724;13.346;2023-11-19T08:10:19;97301.31;;;19.41;69.14
51123;BME280;37162;41.724;13.346;2023-11-19T08:12:45;97311.41;;;19.46;67.71
51123;BME280;37162;41.724;13.346;2023-11-19T08:15:10;97311.50;;;19.51;67.66
51123;BME280;37162;41.724;13.346;2023-11-19T08:17:36;97307.28;;;19.55;68.00
51123;BME280;37162;41.724;13.346;2023-11-19T08:20:03;97307.44;;;19.60;68.26
51123;BME280;37162;41.724;13.346;2023-11-19T08:22:30;97308.59;;;19.64;68.79
51123;BME280;37162;41.724;13.346;2023-11-19T08:24:56;97306.00;;;19.70;69.26
51123;BME280;37162;41.724;13.346;2023-11-19T08:27:21;97309.06;;;19.73;69.37
51123;BME280;37162;41.724;13.346;2023-11-19T08:29:53;97310.22;;;19.77;69.30
51123;BME280;37162;41.724;13.346;2023-11-19T08:32:21;97311.97;;;19.83;69.74
51123;BME280;37162;41.724;13.346;2023-11-19T08:34:46;97308.56;;;19.88;70.18
51123;BME280;37162;41.724;13.346;2023-11-19T08:37:11;97310.78;;;19.91;69.99
51123;BME280;37162;41.724;13.346;2023-11-19T08:39:38;97310.88;;;19.96;70.24
51123;BME280;37162;41.724;13.346;2023-11-19T08:42:04;97299.59;;;19.99;70.49
51123;BME280;37162;41.724;13.346;2023-11-19T08:44:29;97306.97;;;20.04;70.79
51123;BME280;37162;41.724;13.346;2023-11-19T08:46:55;97310.28;;;20.06;71.01
51123;BME280;37162;41.724;13.346;2023-11-19T08:49:20;97302.53;;;20.09;71.06
51123;BME280;37162;41.724;13.346;2023-11-19T08:51:45;97301.47;;;20.10;71.18
51123;BME280;37162;41.724;13.346;2023-11-19T08:54:11;97285.03;;;20.12;71.20
51123;BME280;37162;41.724;13.346;2023-11-19T08:56:38;97310.81;;;20.20;71.34
51123;BME280;37162;41.724;13.346;2023-11-19T08:59:05;97305.78;;;20.23;71.10
51123;BME280;37162;41.724;13.346;2023-11-19T09:01:30;97299.06;;;20.26;71.04
51123;BME280;37162;41.724;13.346;2023-11-19T09:03:56;97299.88;;;20.26;69.59
51123;BME280;37162;41.724;13.346;2023-11-19T09:06:21;97305.00;;;20.28;69.75
51123;BME280;37162;41.724;13.346;2023-11-19T09:08:47;97301.03;;;20.30;69.68
51123;BME280;37162;41.724;13.346;2023-11-19T09:11:12;97294.81;;;20.30;69.58
51123;BME280;37162;41.724;13.346;2023-11-19T09:13:38;97292.69;;;20.32;69.44
51123;BME280;37162;41.724;13.346;2023-11-19T09:16:04;97294.66;;;20.36;69.38
51123;BME280;37162;41.724;13.346;2023-11-19T09:18:30;97295.25;;;20.38;69.52
51123;BME280;37162;41.724;13.346;2023-11-19T09:20:55;97286.66;;;20.41;69.39
51123;BME280;37162;41.724;13.346;2023-11-19T09:23:21;97288.88;;;20.45;69.09
51123;BME280;37162;41.724;13.346;2023-11-19T09:25:46;97288.44;;;20.48;69.17
51123;BME280;37162;41.724;13.346;2023-11-19T09:28:12;97295.22;;;20.50;69.00
51123;BME280;37162;41.724;13.346;2023-11-19T09:30:39;97283.13;;;20.53;68.83
51123;BME280;37162;41.724;13.346;2023-11-19T09:33:05;97281.81;;;20.55;68.83
51123;BME280;37162;41.724;13.346;2023-11-19T09:35:30;97263.97;;;20.54;68.71
51123;BME280;37162;41.724;13.346;2023-11-19T09:37:56;97263.50;;;20.57;68.69
51123;BME280;37162;41.724;13.346;2023-11-19T09:40:21;97273.56;;;20.62;68.83
51123;BME280;37162;41.724;13.346;2023-11-19T09:42:47;97276.59;;;20.65;69.25
51123;BME280;37162;41.724;13.346;2023-11-19T09:45:17;97269.06;;;20.67;68.02
51123;BME280;37162;41.724;13.346;2023-11-19T09:47:44;97266.13;;;20.69;66.60
51123;BME280;37162;41.724;13.346;2023-11-19T09:50:17;97259.81;;;20.63;63.66
51123;BME280;37162;41.724;13.346;2023-11-19T09:52:44;97264.06;;;20.59;61.01
51123;BME280;37162;41.724;13.346;2023-11-19T09:55:10;97259.25;;;20.61;63.04
51123;BME280;37162;41.724;13.346;2023-11-19T09:57:38;97265.81;;;20.65;64.56
51123;BME280;37162;41.724;13.346;2023-11-19T10:00:04;97257.44;;;20.67;65.27
51123;BME280;37162;41.724;13.346;2023-11-19T10:02:34;97252.13;;;20.72;65.87
51123;BME280;37162;41.724;13.346;2023-11-19T10:05:06;97255.66;;;20.73;66.17
51123;BME280;37162;41.724;13.346;2023-11-19T10:07:33;97271.19;;;20.82;66.24
51123;BME280;37162;41.724;13.346;2023-11-19T10:10:03;97243.63;;;20.80;66.55
51123;BME280;37162;41.724;13.346;2023-11-19T10:12:32;97253.44;;;20.86;66.68
51123;BME280;37162;41.724;13.346;2023-11-19T10:14:59;97259.25;;;20.95;66.61
51123;BME280;37162;41.724;13.346;2023-11-19T10:17:28;97248.94;;;20.92;66.34
51123;BME280;37162;41.724;13.346;2023-11-19T10:19:56;97252.31;;;20.99;66.33
51123;BME280;37162;41.724;13.346;2023-11-19T10:22:23;97251.97;;;20.96;66.39
51123;BME280;37162;41.724;13.346;2023-11-19T10:24:48;97262.84;;;21.01;66.23
51123;BME280;37162;41.724;13.346;2023-11-19T10:27:14;97252.59;;;21.03;66.60
51123;BME280;37162;41.724;13.346;2023-11-19T10:29:40;97247.94;;;20.98;66.65
51123;BME280;37162;41.724;13.346;2023-11-19T10:32:05;97252.03;;;21.01;66.48
51123;BME280;37162;41.724;13.346;2023-11-19T10:34:31;97248.78;;;20.99;66.51
51123;BME280;37162;41.724;13.346;2023-11-19T10:36:56;97249.34;;;21.01;66.94
51123;BME280;37162;41.724;13.346;2023-11-19T10:39:22;97250.16;;;21.01;66.86
51123;BME280;37162;41.724;13.346;2023-11-19T10:41:49;97246.38;;;21.02;66.88
51123;BME280;37162;41.724;13.346;2023-11-19T10:44:32;97240.75;;;21.04;66.80
51123;BME280;37162;41.724;13.346;2023-11-19T10:46:59;97237.31;;;21.08;66.71
51123;BME280;37162;41.724;13.346;2023-11-19T10:49:24;97232.13;;;21.07;66.63
51123;BME280;37162;41.724;13.346;2023-11-19T10:51:50;97236.31;;;21.14;66.85
51123;BME280;37162;41.724;13.346;2023-11-19T10:54:19;97240.16;;;21.18;66.92
51123;BME280;37162;41.724;13.346;2023-11-19T10:56:44;97239.63;;;21.22;66.56
51123;BME280;37162;41.724;13.346;2023-11-19T10:59:13;97241.03;;;21.24;66.56
51123;BME280;37162;41.724;13.346;2023-11-19T11:01:45;97241.03;;;21.24;66.53
51123;BME280;37162;41.724;13.346;2023-11-19T11:04:23;97236.94;;;21.22;66.66
51123;BME280;37162;41.724;13.346;2023-11-19T11:06:51;97229.41;;;21.24;66.55
51123;BME280;37162;41.724;13.346;2023-11-19T11:09:17;97228.59;;;21.23;66.77
51123;BME280;37162;41.724;13.346;2023-11-19T11:11:46;97221.88;;;21.26;66.66
51123;BME280;37162;41.724;13.346;2023-11-19T11:14:13;97219.41;;;21.24;66.60
51123;BME280;37162;41.724;13.346;2023-11-19T11:16:46;97220.56;;;21.28;66.64
51123;BME280;37162;41.724;13.346;2023-11-19T11:19:12;97216.78;;;21.29;66.23
51123;BME280;37162;41.724;13.346;2023-11-19T11:21:42;97214.66;;;21.31;66.18
51123;BME280;37162;41.724;13.346;2023-11-19T11:27:30;97205.09;;;21.24;64.45
51123;BME280;37162;41.724;13.346;2023-11-19T11:35:49;97202.69;;;20.88;58.36
51123;BME280;37162;41.724;13.346;2023-11-19T11:38:22;97199.84;;;20.78;56.40
51123;BME280;37162;41.724;13.346;2023-11-19T11:41:18;97193.53;;;20.73;58.81
51123;BME280;37162;41.724;13.346;2023-11-19T11:43:45;97179.78;;;20.74;61.04
51123;BME280;37162;41.724;13.346;2023-11-19T11:48:57;97190.66;;;20.79;62.15
51123;BME280;37162;41.724;13.346;2023-11-19T11:57:01;97183.16;;;20.81;63.19
51123;BME280;37162;41.724;13.346;2023-11-19T11:59:52;97186.66;;;20.82;63.46
51123;BME280;37162;41.724;13.346;2023-11-19T12:02:22;97180.13;;;20.78;63.66
51123;BME280;37162;41.724;13.346;2023-11-19T12:04:49;97175.78;;;20.77;63.65
51123;BME280;37162;41.724;13.346;2023-11-19T12:07:19;97172.75;;;20.73;63.67
51123;BME280;37162;41.724;13.346;2023-11-19T12:10:05;97179.47;;;20.71;63.47
51123;BME280;37162;41.724;13.346;2023-11-19T12:12:33;97172.34;;;20.64;63.81
51123;BME280;37162;41.724;13.346;2023-11-19T12:20:04;97165.50;;;20.57;63.89
51123;BME280;37162;41.724;13.346;2023-11-19T12:22:30;97162.47;;;20.53;64.44
51123;BME280;37162;41.724;13.346;2023-11-19T12:24:56;97150.16;;;20.46;63.52
51123;BME280;37162;41.724;13.346;2023-11-19T12:27:22;97150.66;;;20.42;64.39
51123;BME280;37162;41.724;13.346;2023-11-19T12:29:48;97146.00;;;20.38;65.12
51123;BME280;37162;41.724;13.346;2023-11-19T12:32:14;97133.97;;;20.29;65.92
51123;BME280;37162;41.724;13.346;2023-11-19T12:34:39;97135.03;;;20.28;67.13
51123;BME280;37162;41.724;13.346;2023-11-19T12:37:05;97132.09;;;20.29;68.68
51123;BME280;37162;41.724;13.346;2023-11-19T12:39:31;97127.91;;;20.22;68.48
51123;BME280;37162;41.724;13.346;2023-11-19T12:41:57;97126.22;;;20.15;70.36
51123;BME280;37162;41.724;13.346;2023-11-19T12:44:25;97129.16;;;20.14;70.71
51123;BME280;37162;41.724;13.346;2023-11-19T12:47:04;97121.22;;;20.07;70.14
51123;BME280;37162;41.724;13.346;2023-11-19T12:49:30;97126.53;;;20.02;69.79
51123;BME280;37162;41.724;13.346;2023-11-19T12:51:55;97119.97;;;19.98;69.82
51123;BME280;37162;41.724;13.346;2023-11-19T12:54:34;97122.09;;;19.96;69.87
51123;BME280;37162;41.724;13.346;2023-11-19T12:57:00;97112.03;;;19.91;70.03
51123;BME280;37162;41.724;13.346;2023-11-19T12:59:26;97114.97;;;19.90;70.22
51123;BME280;37162;41.724;13.346;2023-11-19T13:01:59;97110.06;;;19.87;70.48
51123;BME280;37162;41.724;13.346;2023-11-19T13:04:31;97084.56;;;19.78;70.54
51123;BME280;37162;41.724;13.346;2023-11-19T13:06:58;97093.72;;;19.77;70.86
51123;BME280;37162;41.724;13.346;2023-11-19T13:09:24;97087.28;;;19.78;70.92
51123;BME280;37162;41.724;13.346;2023-11-19T13:11:50;97091.03;;;19.77;71.46
51123;BME280;37162;41.724;13.346;2023-11-19T13:14:16;97083.41;;;19.74;71.71
51123;BME280;37162;41.724;13.346;2023-11-19T13:16:42;97080.97;;;19.72;72.06